sensor_id;sensor_type;location;lat;lon;timestamp;P1;durP1;ratioP1;P2;durP2;ratioP2
63807;SDS011;49961;43.970;22.868;2023-08-21T00:00:31;7.80;;;6.03;;
63807;SDS011;49961;43.970;22.868;2023-08-21T00:01:31;6.73;;;5.93;;
63807;SDS011;49961;43.970;22.868;2023-08-21T00:02:32;6.33;;;5.63;;
63807;SDS011;49961;43.970;22.868;2023-08-21T00:03:32;10.10;;;5.93;;
63807;SDS011;49961;43.970;22.868;2023-08-21T00:04:33;6.47;;;5.90;;
63807;SDS011;49961;43.970;22.868;2023-08-21T00:05:34;7.10;;;6.23;;
63807;SDS011;49961;43.970;22.868;2023-08-21T00:06:34;6.83;;;6.10;;
63807;SDS011;49961;43.970;22.868;2023-08-21T00:07:35;6.27;;;5.67;;
63807;SDS011;49961;43.970;22.868;2023-08-21T00:08:35;6.97;;;6.27;;
63807;SDS011;49961;43.970;22.868;2023-08-21T00:09:36;7.27;;;6.40;;
63807;SDS011;49961;43.970;22.868;2023-08-21T00:10:39;9.23;;;6.33;;
63807;SDS011;49961;43.970;22.868;2023-08-21T00:11:41;8.67;;;6.23;;
63807;SDS011;49961;43.970;22.868;2023-08-21T00:12:41;8.90;;;6.37;;
63807;SDS011;49961;43.970;22.868;2023-08-21T00:13:41;8.23;;;6.07;;
63807;SDS011;49961;43.970;22.868;2023-08-21T00:14:44;7.43;;;5.77;;
63807;SDS011;49961;43.970;22.868;2023-08-21T00:15:45;8.33;;;5.67;;
63807;SDS011;49961;43.970;22.868;2023-08-21T00:16:45;10.53;;;6.63;;
63807;SDS011;49961;43.970;22.868;2023-08-21T00:17:45;9.83;;;6.27;;
63807;SDS011;49961;43.970;22.868;2023-08-21T00:18:46;8.00;;;6.07;;
63807;SDS011;49961;43.970;22.868;2023-08-21T00:19:47;6.80;;;6.10;;
63807;SDS011;49961;43.970;22.868;2023-08-21T00:20:47;11.37;;;6.40;;
63807;SDS011;49961;43.970;22.868;2023-08-21T00:21:47;7.10;;;6.50;;
63807;SDS011;49961;43.970;22.868;2023-08-21T00:22:48;8.63;;;5.83;;
63807;SDS011;49961;43.970;22.868;2023-08-21T00:23:48;9.03;;;6.63;;
63807;SDS011;49961;43.970;22.868;2023-08-21T00:24:49;7.93;;;6.47;;
63807;SDS011;49961;43.970;22.868;2023-08-21T00:25:49;6.40;;;5.80;;
63807;SDS011;49961;43.970;22.868;2023-08-21T00:26:49;7.93;;;6.53;;
63807;SDS011;49961;43.970;22.868;2023-08-21T00:27:50;6.83;;;6.13;;
63807;SDS011;49961;43.970;22.868;2023-08-21T00:28:50;8.97;;;6.20;;
63807;SDS011;49961;43.970;22.868;2023-08-21T00:29:51;8.00;;;6.33;;
63807;SDS011;49961;43.970;22.868;2023-08-21T00:30:51;7.47;;;6.40;;
63807;SDS011;49961;43.970;22.868;2023-08-21T00:31:59;8.93;;;6.37;;
63807;SDS011;49961;43.970;22.868;2023-08-21T00:33:00;8.40;;;6.40;;
63807;SDS011;49961;43.970;22.868;2023-08-21T00:34:00;6.97;;;6.30;;
63807;SDS011;49961;43.970;22.868;2023-08-21T00:35:00;7.10;;;6.30;;
63807;SDS011;49961;43.970;22.868;2023-08-21T00:36:01;8.23;;;6.30;;
63807;SDS011;49961;43.970;22.868;2023-08-21T00:37:01;9.13;;;6.60;;
63807;SDS011;49961;43.970;22.868;2023-08-21T00:38:02;8.33;;;6.43;;
63807;SDS011;49961;43.970;22.868;2023-08-21T00:39:02;11.70;;;6.27;;
63807;SDS011;49961;43.970;22.868;2023-08-21T00:40:03;8.27;;;6.70;;
63807;SDS011;49961;43.970;22.868;2023-08-21T00:41:03;8.53;;;6.37;;
63807;SDS011;49961;43.970;22.868;2023-08-21T00:42:04;8.83;;;6.37;;
63807;SDS011;49961;43.970;22.868;2023-08-21T00:43:05;9.53;;;6.53;;
63807;SDS011;49961;43.970;22.868;2023-08-21T00:44:05;9.97;;;6.60;;
63807;SDS011;49961;43.970;22.868;2023-08-21T00:45:06;11.03;;;6.50;;
63807;SDS011;49961;43.970;22.868;2023-08-21T00:46:08;8.47;;;6.57;;
63807;SDS011;49961;43.970;22.868;2023-08-21T00:47:09;7.17;;;6.03;;
63807;SDS011;49961;43.970;22.868;2023-08-21T00:48:10;8.17;;;6.30;;
63807;SDS011;49961;43.970;22.868;2023-08-21T00:49:12;8.60;;;6.13;;
63807;SDS011;49961;43.970;22.868;2023-08-21T00:50:12;11.47;;;6.27;;
63807;SDS011;49961;43.970;22.868;2023-08-21T00:51:13;9.17;;;6.60;;
63807;SDS011;49961;43.970;22.868;2023-08-21T00:52:16;7.47;;;6.20;;
63807;SDS011;49961;43.970;22.868;2023-08-21T00:53:17;9.90;;;6.70;;
63807;SDS011;49961;43.970;22.868;2023-08-21T00:54:18;7.50;;;6.37;;
63807;SDS011;49961;43.970;22.868;2023-08-21T00:55:19;7.87;;;6.40;;
63807;SDS011;49961;43.970;22.868;2023-08-21T00:56:20;8.07;;;6.47;;
63807;SDS011;49961;43.970;22.868;2023-08-21T00:57:21;7.43;;;6.60;;
63807;SDS011;49961;43.970;22.868;2023-08-21T00:58:23;7.00;;;6.30;;
63807;SDS011;49961;43.970;22.868;2023-08-21T00:59:23;8.20;;;6.60;;
63807;SDS011;49961;43.970;22.868;2023-08-21T01:00:24;11.80;;;7.00;;
63807;SDS011;49961;43.970;22.868;2023-08-21T01:01:26;9.33;;;6.50;;
63807;SDS011;49961;43.970;22.868;2023-08-21T01:02:28;9.63;;;6.73;;
63807;SDS011;49961;43.970;22.868;2023-08-21T01:03:29;13.53;;;7.07;;
63807;SDS011;49961;43.970;22.868;2023-08-21T01:04:29;8.20;;;6.90;;
63807;SDS011;49961;43.970;22.868;2023-08-21T01:05:29;7.70;;;6.97;;
63807;SDS011;49961;43.970;22.868;2023-08-21T01:06:30;7.57;;;6.43;;
63807;SDS011;49961;43.970;22.868;2023-08-21T01:07:36;9.00;;;6.53;;
63807;SDS011;49961;43.970;22.868;2023-08-21T01:08:47;8.67;;;6.80;;
63807;SDS011;49961;43.970;22.868;2023-08-21T01:10:00;9.03;;;6.53;;
63807;SDS011;49961;43.970;22.868;2023-08-21T01:11:09;8.73;;;6.40;;
63807;SDS011;49961;43.970;22.868;2023-08-21T01:12:15;7.37;;;6.20;;
63807;SDS011;49961;43.970;22.868;2023-08-21T01:14:43;12.10;;;7.43;;
63807;SDS011;49961;43.970;22.868;2023-08-21T01:15:51;10.20;;;6.60;;
63807;SDS011;49961;43.970;22.868;2023-08-21T01:16:55;17.93;;;7.33;;
63807;SDS011;49961;43.970;22.868;2023-08-21T01:17:59;16.00;;;7.60;;
63807;SDS011;49961;43.970;22.868;2023-08-21T01:19:00;14.43;;;7.03;;
63807;SDS011;49961;43.970;22.868;2023-08-21T01:20:01;15.00;;;7.17;;
63807;SDS011;49961;43.970;22.868;2023-08-21T01:21:03;17.43;;;8.23;;
63807;SDS011;49961;43.970;22.868;2023-08-21T01:22:05;20.63;;;8.23;;
63807;SDS011;49961;43.970;22.868;2023-08-21T01:23:05;25.20;;;8.53;;
63807;SDS011;49961;43.970;22.868;2023-08-21T01:24:06;17.47;;;8.00;;
63807;SDS011;49961;43.970;22.868;2023-08-21T01:25:07;9.70;;;6.63;;
63807;SDS011;49961;43.970;22.868;2023-08-21T01:26:10;11.70;;;7.10;;
63807;SDS011;49961;43.970;22.868;2023-08-21T01:27:12;10.93;;;6.87;;
63807;SDS011;49961;43.970;22.868;2023-08-21T01:28:14;20.10;;;7.70;;
63807;SDS011;49961;43.970;22.868;2023-08-21T01:29:14;14.83;;;7.77;;
63807;SDS011;49961;43.970;22.868;2023-08-21T01:30:15;16.77;;;7.43;;
63807;SDS011;49961;43.970;22.868;2023-08-21T01:31:20;9.73;;;7.00;;
63807;SDS011;49961;43.970;22.868;2023-08-21T01:32:29;10.40;;;7.43;;
63807;SDS011;49961;43.970;22.868;2023-08-21T01:33:44;10.57;;;7.57;;
63807;SDS011;49961;43.970;22.868;2023-08-21T01:34:47;11.67;;;7.20;;
63807;SDS011;49961;43.970;22.868;2023-08-21T01:35:51;9.50;;;7.17;;
63807;SDS011;49961;43.970;22.868;2023-08-21T01:36:52;9.17;;;7.13;;
63807;SDS011;49961;43.970;22.868;2023-08-21T01:37:52;8.83;;;7.33;;
63807;SDS011;49961;43.970;22.868;2023-08-21T01:38:53;10.07;;;6.93;;
63807;SDS011;49961;43.970;22.868;2023-08-21T01:39:53;7.67;;;6.90;;
63807;SDS011;49961;43.970;22.868;2023-08-21T01:40:54;11.20;;;7.33;;
63807;SDS011;49961;43.970;22.868;2023-08-21T01:41:55;17.80;;;7.67;;
63807;SDS011;49961;43.970;22.868;2023-08-21T01:42:56;18.47;;;7.47;;
63807;SDS011;49961;43.970;22.868;2023-08-21T01:43:57;22.17;;;7.87;;
63807;SDS011;49961;43.970;22.868;2023-08-21T01:44:57;23.80;;;8.20;;
63807;SDS011;49961;43.970;22.868;2023-08-21T01:45:57;15.87;;;7.23;;
63807;SDS011;49961;43.970;22.868;2023-08-21T01:46:58;19.50;;;7.93;;
63807;SDS011;49961;43.970;22.868;2023-08-21T01:47:58;19.03;;;7.77;;
63807;SDS011;49961;43.970;22.868;2023-08-21T01:48:59;15.50;;;7.53;;
63807;SDS011;49961;43.970;22.868;2023-08-21T01:49:59;17.77;;;7.73;;
63807;SDS011;49961;43.970;22.868;2023-08-21T01:51:02;13.73;;;7.63;;
63807;SDS011;49961;43.970;22.868;2023-08-21T01:52:03;16.43;;;7.80;;
63807;SDS011;49961;43.970;22.868;2023-08-21T01:53:04;14.43;;;7.83;;
63807;SDS011;49961;43.970;22.868;2023-08-21T01:54:04;12.77;;;7.37;;
63807;SDS011;49961;43.970;22.868;2023-08-21T01:55:05;14.70;;;8.07;;
63807;SDS011;49961;43.970;22.868;2023-08-21T01:56:07;8.63;;;7.07;;
63807;SDS011;49961;43.970;22.868;2023-08-21T01:57:08;12.73;;;7.30;;
63807;SDS011;49961;43.970;22.868;2023-08-21T01:58:08;8.70;;;7.40;;
63807;SDS011;49961;43.970;22.868;2023-08-21T01:59:09;7.73;;;6.93;;
63807;SDS011;49961;43.970;22.868;2023-08-21T02:00:09;8.80;;;6.97;;
63807;SDS011;49961;43.970;22.868;2023-08-21T02:01:10;9.33;;;6.63;;
63807;SDS011;49961;43.970;22.868;2023-08-21T02:02:11;8.53;;;6.80;;
63807;SDS011;49961;43.970;22.868;2023-08-21T02:03:11;9.50;;;7.13;;
63807;SDS011;49961;43.970;22.868;2023-08-21T02:04:11;7.73;;;6.90;;
63807;SDS011;49961;43.970;22.868;2023-08-21T02:05:12;7.93;;;6.43;;
63807;SDS011;49961;43.970;22.868;2023-08-21T02:06:12;8.73;;;7.50;;
63807;SDS011;49961;43.970;22.868;2023-08-21T02:07:13;11.30;;;7.23;;
63807;SDS011;49961;43.970;22.868;2023-08-21T02:08:13;11.10;;;7.10;;
63807;SDS011;49961;43.970;22.868;2023-08-21T02:09:14;13.97;;;7.93;;
63807;SDS011;49961;43.970;22.868;2023-08-21T02:10:15;9.13;;;7.17;;
63807;SDS011;49961;43.970;22.868;2023-08-21T02:11:15;11.27;;;7.50;;
63807;SDS011;49961;43.970;22.868;2023-08-21T02:12:16;8.40;;;7.10;;
63807;SDS011;49961;43.970;22.868;2023-08-21T02:13:18;8.37;;;7.00;;
63807;SDS011;49961;43.970;22.868;2023-08-21T02:14:18;11.17;;;7.33;;
63807;SDS011;49961;43.970;22.868;2023-08-21T02:15:19;9.40;;;7.30;;
63807;SDS011;49961;43.970;22.868;2023-08-21T02:16:22;7.87;;;6.80;;
63807;SDS011;49961;43.970;22.868;2023-08-21T02:17:25;10.37;;;7.27;;
63807;SDS011;49961;43.970;22.868;2023-08-21T02:18:25;8.37;;;7.10;;
63807;SDS011;49961;43.970;22.868;2023-08-21T02:19:26;11.80;;;7.67;;
63807;SDS011;49961;43.970;22.868;2023-08-21T02:20:26;10.73;;;7.47;;
63807;SDS011;49961;43.970;22.868;2023-08-21T02:21:26;9.63;;;7.50;;
63807;SDS011;49961;43.970;22.868;2023-08-21T02:22:27;14.17;;;7.90;;
63807;SDS011;49961;43.970;22.868;2023-08-21T02:23:27;13.87;;;8.03;;
63807;SDS011;49961;43.970;22.868;2023-08-21T02:24:29;12.33;;;7.80;;
63807;SDS011;49961;43.970;22.868;2023-08-21T02:25:29;10.20;;;7.50;;
63807;SDS011;49961;43.970;22.868;2023-08-21T02:26:30;10.90;;;7.17;;
63807;SDS011;49961;43.970;22.868;2023-08-21T02:27:31;10.60;;;7.40;;
63807;SDS011;49961;43.970;22.868;2023-08-21T02:28:32;10.80;;;7.43;;
63807;SDS011;49961;43.970;22.868;2023-08-21T02:29:33;9.83;;;7.47;;
63807;SDS011;49961;43.970;22.868;2023-08-21T02:30:33;8.27;;;7.30;;
63807;SDS011;49961;43.970;22.868;2023-08-21T02:31:34;11.67;;;7.57;;
63807;SDS011;49961;43.970;22.868;2023-08-21T02:32:34;8.40;;;7.50;;
63807;SDS011;49961;43.970;22.868;2023-08-21T02:33:35;9.73;;;7.67;;
63807;SDS011;49961;43.970;22.868;2023-08-21T02:34:35;9.60;;;6.93;;
63807;SDS011;49961;43.970;22.868;2023-08-21T02:35:36;9.07;;;7.07;;
63807;SDS011;49961;43.970;22.868;2023-08-21T02:36:36;8.40;;;7.00;;
63807;SDS011;49961;43.970;22.868;2023-08-21T02:37:37;8.33;;;7.23;;
63807;SDS011;49961;43.970;22.868;2023-08-21T02:38:39;9.57;;;7.37;;
63807;SDS011;49961;43.970;22.868;2023-08-21T02:39:39;9.47;;;7.20;;
63807;SDS011;49961;43.970;22.868;2023-08-21T02:40:39;8.97;;;7.10;;
63807;SDS011;49961;43.970;22.868;2023-08-21T02:41:40;9.30;;;7.50;;
63807;SDS011;49961;43.970;22.868;2023-08-21T02:42:40;10.07;;;7.30;;
63807;SDS011;49961;43.970;22.868;2023-08-21T02:43:41;8.83;;;7.37;;
63807;SDS011;49961;43.970;22.868;2023-08-21T02:44:41;11.10;;;7.00;;
63807;SDS011;49961;43.970;22.868;2023-08-21T02:45:41;8.47;;;7.53;;
63807;SDS011;49961;43.970;22.868;2023-08-21T02:46:42;10.17;;;7.07;;
63807;SDS011;49961;43.970;22.868;2023-08-21T02:47:42;8.53;;;7.67;;
63807;SDS011;49961;43.970;22.868;2023-08-21T02:48:43;8.90;;;7.20;;
63807;SDS011;49961;43.970;22.868;2023-08-21T02:49:43;10.83;;;7.57;;
63807;SDS011;49961;43.970;22.868;2023-08-21T02:50:44;10.27;;;7.77;;
63807;SDS011;49961;43.970;22.868;2023-08-21T02:51:44;10.70;;;8.13;;
63807;SDS011;49961;43.970;22.868;2023-08-21T02:52:45;10.00;;;7.93;;
63807;SDS011;49961;43.970;22.868;2023-08-21T02:53:46;9.20;;;8.00;;
63807;SDS011;49961;43.970;22.868;2023-08-21T02:54:46;10.27;;;8.43;;
63807;SDS011;49961;43.970;22.868;2023-08-21T02:55:47;11.87;;;8.80;;
63807;SDS011;49961;43.970;22.868;2023-08-21T02:56:47;12.73;;;8.40;;
63807;SDS011;49961;43.970;22.868;2023-08-21T02:57:48;11.97;;;8.23;;
63807;SDS011;49961;43.970;22.868;2023-08-21T02:58:48;12.73;;;8.80;;
63807;SDS011;49961;43.970;22.868;2023-08-21T02:59:49;13.07;;;8.90;;
63807;SDS011;49961;43.970;22.868;2023-08-21T03:00:49;12.07;;;8.40;;
63807;SDS011;49961;43.970;22.868;2023-08-21T03:01:49;13.13;;;9.43;;
63807;SDS011;49961;43.970;22.868;2023-08-21T03:02:50;13.23;;;8.40;;
63807;SDS011;49961;43.970;22.868;2023-08-21T03:03:50;14.37;;;8.57;;
63807;SDS011;49961;43.970;22.868;2023-08-21T03:04:51;17.30;;;8.93;;
63807;SDS011;49961;43.970;22.868;2023-08-21T03:05:52;12.23;;;8.47;;
63807;SDS011;49961;43.970;22.868;2023-08-21T03:06:52;14.80;;;9.03;;
63807;SDS011;49961;43.970;22.868;2023-08-21T03:07:53;15.43;;;8.97;;
63807;SDS011;49961;43.970;22.868;2023-08-21T03:08:53;18.50;;;8.80;;
63807;SDS011;49961;43.970;22.868;2023-08-21T03:09:54;14.47;;;8.90;;
63807;SDS011;49961;43.970;22.868;2023-08-21T03:10:54;20.27;;;9.03;;
63807;SDS011;49961;43.970;22.868;2023-08-21T03:11:54;15.00;;;8.97;;
63807;SDS011;49961;43.970;22.868;2023-08-21T03:12:55;11.33;;;8.57;;
63807;SDS011;49961;43.970;22.868;2023-08-21T03:13:55;14.67;;;8.57;;
63807;SDS011;49961;43.970;22.868;2023-08-21T03:14:56;12.00;;;8.40;;
63807;SDS011;49961;43.970;22.868;2023-08-21T03:15:56;12.63;;;8.03;;
63807;SDS011;49961;43.970;22.868;2023-08-21T03:16:56;10.53;;;7.97;;
63807;SDS011;49961;43.970;22.868;2023-08-21T03:17:57;11.13;;;8.50;;
63807;SDS011;49961;43.970;22.868;2023-08-21T03:18:58;11.33;;;8.97;;
63807;SDS011;49961;43.970;22.868;2023-08-21T03:20:00;11.00;;;8.40;;
63807;SDS011;49961;43.970;22.868;2023-08-21T03:21:00;9.13;;;8.33;;
63807;SDS011;49961;43.970;22.868;2023-08-21T03:22:01;8.87;;;7.90;;
63807;SDS011;49961;43.970;22.868;2023-08-21T03:23:01;10.73;;;7.87;;
63807;SDS011;49961;43.970;22.868;2023-08-21T03:24:02;8.70;;;7.80;;
63807;SDS011;49961;43.970;22.868;2023-08-21T03:25:03;8.87;;;7.97;;
63807;SDS011;49961;43.970;22.868;2023-08-21T03:26:03;10.33;;;8.40;;
63807;SDS011;49961;43.970;22.868;2023-08-21T03:27:04;9.70;;;7.90;;
63807;SDS011;49961;43.970;22.868;2023-08-21T03:28:04;9.40;;;8.40;;
63807;SDS011;49961;43.970;22.868;2023-08-21T03:29:05;11.97;;;8.93;;
63807;SDS011;49961;43.970;22.868;2023-08-21T03:30:06;13.13;;;8.97;;
63807;SDS011;49961;43.970;22.868;2023-08-21T03:31:07;9.97;;;8.40;;
63807;SDS011;49961;43.970;22.868;2023-08-21T03:32:07;11.23;;;8.67;;
63807;SDS011;49961;43.970;22.868;2023-08-21T03:33:07;12.87;;;8.90;;
63807;SDS011;49961;43.970;22.868;2023-08-21T03:34:08;12.47;;;9.10;;
63807;SDS011;49961;43.970;22.868;2023-08-21T03:35:09;14.40;;;8.90;;
63807;SDS011;49961;43.970;22.868;2023-08-21T03:36:09;12.23;;;9.13;;
63807;SDS011;49961;43.970;22.868;2023-08-21T03:37:10;11.63;;;9.67;;
63807;SDS011;49961;43.970;22.868;2023-08-21T03:38:10;10.93;;;8.60;;
63807;SDS011;49961;43.970;22.868;2023-08-21T03:39:11;11.33;;;9.07;;
63807;SDS011;49961;43.970;22.868;2023-08-21T03:40:11;12.50;;;9.27;;
63807;SDS011;49961;43.970;22.868;2023-08-21T03:41:12;11.60;;;9.10;;
63807;SDS011;49961;43.970;22.868;2023-08-21T03:42:13;15.67;;;9.73;;
63807;SDS011;49961;43.970;22.868;2023-08-21T03:43:13;14.57;;;9.17;;
63807;SDS011;49961;43.970;22.868;2023-08-21T03:44:13;10.57;;;8.37;;
63807;SDS011;49961;43.970;22.868;2023-08-21T03:45:14;10.57;;;8.80;;
63807;SDS011;49961;43.970;22.868;2023-08-21T03:46:14;11.57;;;8.67;;
63807;SDS011;49961;43.970;22.868;2023-08-21T03:47:14;10.47;;;8.67;;
63807;SDS011;49961;43.970;22.868;2023-08-21T03:48:15;12.80;;;8.77;;
63807;SDS011;49961;43.970;22.868;2023-08-21T03:49:16;13.43;;;8.50;;
63807;SDS011;49961;43.970;22.868;2023-08-21T03:50:16;12.17;;;9.10;;
63807;SDS011;49961;43.970;22.868;2023-08-21T03:51:17;11.87;;;8.83;;
63807;SDS011;49961;43.970;22.868;2023-08-21T03:52:17;14.83;;;8.73;;
63807;SDS011;49961;43.970;22.868;2023-08-21T03:53:18;11.40;;;8.47;;
63807;SDS011;49961;43.970;22.868;2023-08-21T03:54:18;13.13;;;9.13;;
63807;SDS011;49961;43.970;22.868;2023-08-21T03:55:19;13.63;;;9.33;;
63807;SDS011;49961;43.970;22.868;2023-08-21T03:56:19;12.87;;;9.73;;
63807;SDS011;49961;43.970;22.868;2023-08-21T03:57:19;13.70;;;10.63;;
63807;SDS011;49961;43.970;22.868;2023-08-21T03:58:20;16.37;;;10.27;;
63807;SDS011;49961;43.970;22.868;2023-08-21T03:59:20;13.67;;;10.33;;
63807;SDS011;49961;43.970;22.868;2023-08-21T04:00:22;12.63;;;9.53;;
63807;SDS011;49961;43.970;22.868;2023-08-21T04:01:23;11.17;;;9.90;;
63807;SDS011;49961;43.970;22.868;2023-08-21T04:02:23;11.73;;;9.57;;
63807;SDS011;49961;43.970;22.868;2023-08-21T04:03:24;11.87;;;9.50;;
63807;SDS011;49961;43.970;22.868;2023-08-21T04:04:24;12.53;;;8.77;;
63807;SDS011;49961;43.970;22.868;2023-08-21T04:05:24;12.73;;;8.60;;
63807;SDS011;49961;43.970;22.868;2023-08-21T04:06:25;11.03;;;9.20;;
63807;SDS011;49961;43.970;22.868;2023-08-21T04:07:25;10.83;;;8.37;;
63807;SDS011;49961;43.970;22.868;2023-08-21T04:08:26;9.93;;;9.00;;
63807;SDS011;49961;43.970;22.868;2023-08-21T04:09:26;10.77;;;7.97;;
63807;SDS011;49961;43.970;22.868;2023-08-21T04:10:26;11.37;;;8.50;;
63807;SDS011;49961;43.970;22.868;2023-08-21T04:11:27;9.13;;;8.23;;
63807;SDS011;49961;43.970;22.868;2023-08-21T04:12:28;9.20;;;8.23;;
63807;SDS011;49961;43.970;22.868;2023-08-21T04:13:29;8.93;;;8.03;;
63807;SDS011;49961;43.970;22.868;2023-08-21T04:14:29;12.83;;;7.90;;
63807;SDS011;49961;43.970;22.868;2023-08-21T04:15:30;10.00;;;7.87;;
63807;SDS011;49961;43.970;22.868;2023-08-21T04:16:31;9.63;;;8.30;;
63807;SDS011;49961;43.970;22.868;2023-08-21T04:17:31;13.53;;;8.07;;
63807;SDS011;49961;43.970;22.868;2023-08-21T04:18:32;10.27;;;8.27;;
63807;SDS011;49961;43.970;22.868;2023-08-21T04:19:32;11.03;;;8.13;;
63807;SDS011;49961;43.970;22.868;2023-08-21T04:20:34;10.07;;;7.97;;
63807;SDS011;49961;43.970;22.868;2023-08-21T04:21:34;10.17;;;7.23;;
63807;SDS011;49961;43.970;22.868;2023-08-21T04:22:34;9.93;;;7.93;;
63807;SDS011;49961;43.970;22.868;2023-08-21T04:23:35;10.17;;;8.13;;
63807;SDS011;49961;43.970;22.868;2023-08-21T04:24:36;14.80;;;8.43;;
63807;SDS011;49961;43.970;22.868;2023-08-21T04:25:36;12.20;;;8.30;;
63807;SDS011;49961;43.970;22.868;2023-08-21T04:26:36;11.00;;;7.93;;
63807;SDS011;49961;43.970;22.868;2023-08-21T04:27:37;10.90;;;8.07;;
63807;SDS011;49961;43.970;22.868;2023-08-21T04:28:37;10.67;;;8.57;;
63807;SDS011;49961;43.970;22.868;2023-08-21T04:29:38;4.03;;;3.63;;
63807;SDS011;49961;43.970;22.868;2023-08-21T04:30:42;4.90;;;3.60;;
63807;SDS011;49961;43.970;22.868;2023-08-21T04:31:42;5.60;;;3.67;;
63807;SDS011;49961;43.970;22.868;2023-08-21T04:32:42;7.83;;;3.70;;
63807;SDS011;49961;43.970;22.868;2023-08-21T04:33:43;8.70;;;4.57;;
63807;SDS011;49961;43.970;22.868;2023-08-21T04:34:43;82.47;;;10.97;;
63807;SDS011;49961;43.970;22.868;2023-08-21T04:35:44;33.40;;;8.20;;
63807;SDS011;49961;43.970;22.868;2023-08-21T04:36:44;30.60;;;7.47;;
63807;SDS011;49961;43.970;22.868;2023-08-21T04:37:46;30.80;;;6.60;;
63807;SDS011;49961;43.970;22.868;2023-08-21T04:38:47;15.83;;;7.23;;
63807;SDS011;49961;43.970;22.868;2023-08-21T04:39:51;12.10;;;6.30;;
63807;SDS011;49961;43.970;22.868;2023-08-21T04:40:52;27.13;;;6.70;;
63807;SDS011;49961;43.970;22.868;2023-08-21T04:41:52;20.57;;;6.80;;
63807;SDS011;49961;43.970;22.868;2023-08-21T04:42:53;14.37;;;6.50;;
63807;SDS011;49961;43.970;22.868;2023-08-21T04:43:53;15.40;;;6.70;;
63807;SDS011;49961;43.970;22.868;2023-08-21T04:44:53;13.73;;;6.20;;
63807;SDS011;49961;43.970;22.868;2023-08-21T04:45:54;10.20;;;7.20;;
63807;SDS011;49961;43.970;22.868;2023-08-21T04:46:54;10.03;;;7.40;;
63807;SDS011;49961;43.970;22.868;2023-08-21T04:47:55;9.67;;;6.13;;
63807;SDS011;49961;43.970;22.868;2023-08-21T04:48:55;11.17;;;5.90;;
63807;SDS011;49961;43.970;22.868;2023-08-21T04:49:56;11.20;;;6.50;;
63807;SDS011;49961;43.970;22.868;2023-08-21T04:50:56;11.63;;;5.77;;
63807;SDS011;49961;43.970;22.868;2023-08-21T04:51:57;9.53;;;6.20;;
63807;SDS011;49961;43.970;22.868;2023-08-21T04:52:57;8.83;;;6.23;;
63807;SDS011;49961;43.970;22.868;2023-08-21T04:53:57;10.80;;;6.87;;
63807;SDS011;49961;43.970;22.868;2023-08-21T04:54:59;11.37;;;6.37;;
63807;SDS011;49961;43.970;22.868;2023-08-21T04:56:00;15.67;;;6.70;;
63807;SDS011;49961;43.970;22.868;2023-08-21T04:57:00;10.60;;;6.67;;
63807;SDS011;49961;43.970;22.868;2023-08-21T04:58:00;10.57;;;7.00;;
63807;SDS011;49961;43.970;22.868;2023-08-21T04:59:01;14.37;;;7.50;;
63807;SDS011;49961;43.970;22.868;2023-08-21T05:00:02;18.20;;;7.53;;
63807;SDS011;49961;43.970;22.868;2023-08-21T05:01:07;16.67;;;8.17;;
63807;SDS011;49961;43.970;22.868;2023-08-21T05:02:07;14.50;;;7.03;;
63807;SDS011;49961;43.970;22.868;2023-08-21T05:03:08;8.75;;;6.05;;
63807;SDS011;49961;43.970;22.868;2023-08-21T05:04:12;10.57;;;6.22;;
63807;SDS011;49961;43.970;22.868;2023-08-21T05:05:12;10.77;;;6.47;;
63807;SDS011;49961;43.970;22.868;2023-08-21T05:06:13;8.68;;;5.32;;
63807;SDS011;49961;43.970;22.868;2023-08-21T05:07:13;9.57;;;5.67;;
63807;SDS011;49961;43.970;22.868;2023-08-21T05:08:14;10.07;;;5.90;;
63807;SDS011;49961;43.970;22.868;2023-08-21T05:09:14;11.00;;;5.55;;
63807;SDS011;49961;43.970;22.868;2023-08-21T05:10:14;10.30;;;5.55;;
63807;SDS011;49961;43.970;22.868;2023-08-21T05:11:15;8.75;;;6.00;;
63807;SDS011;49961;43.970;22.868;2023-08-21T05:12:16;8.82;;;5.93;;
63807;SDS011;49961;43.970;22.868;2023-08-21T05:13:16;13.15;;;6.40;;
63807;SDS011;49961;43.970;22.868;2023-08-21T05:14:17;10.65;;;6.30;;
63807;SDS011;49961;43.970;22.868;2023-08-21T05:15:19;9.02;;;6.20;;
63807;SDS011;49961;43.970;22.868;2023-08-21T05:16:22;9.38;;;6.32;;
63807;SDS011;49961;43.970;22.868;2023-08-21T05:17:23;8.50;;;6.18;;
63807;SDS011;49961;43.970;22.868;2023-08-21T05:18:24;10.05;;;6.05;;
63807;SDS011;49961;43.970;22.868;2023-08-21T05:19:25;8.90;;;5.60;;
63807;SDS011;49961;43.970;22.868;2023-08-21T05:20:26;9.68;;;5.60;;
63807;SDS011;49961;43.970;22.868;2023-08-21T05:21:26;10.52;;;6.00;;
63807;SDS011;49961;43.970;22.868;2023-08-21T05:22:27;9.00;;;5.63;;
63807;SDS011;49961;43.970;22.868;2023-08-21T05:23:27;8.88;;;5.90;;
63807;SDS011;49961;43.970;22.868;2023-08-21T05:24:28;6.63;;;5.93;;
63807;SDS011;49961;43.970;22.868;2023-08-21T05:25:31;7.85;;;5.63;;
63807;SDS011;49961;43.970;22.868;2023-08-21T05:26:32;7.90;;;5.47;;
63807;SDS011;49961;43.970;22.868;2023-08-21T05:27:32;8.77;;;5.63;;
63807;SDS011;49961;43.970;22.868;2023-08-21T05:28:32;6.47;;;5.88;;
63807;SDS011;49961;43.970;22.868;2023-08-21T05:29:33;10.35;;;5.65;;
63807;SDS011;49961;43.970;22.868;2023-08-21T05:30:37;8.48;;;6.07;;
63807;SDS011;49961;43.970;22.868;2023-08-21T05:31:38;9.75;;;5.90;;
63807;SDS011;49961;43.970;22.868;2023-08-21T05:32:38;8.23;;;5.82;;
63807;SDS011;49961;43.970;22.868;2023-08-21T05:33:39;7.10;;;6.13;;
63807;SDS011;49961;43.970;22.868;2023-08-21T05:34:39;6.72;;;5.88;;
63807;SDS011;49961;43.970;22.868;2023-08-21T05:35:39;7.03;;;6.00;;
63807;SDS011;49961;43.970;22.868;2023-08-21T05:36:41;6.15;;;5.55;;
63807;SDS011;49961;43.970;22.868;2023-08-21T05:37:41;6.50;;;5.90;;
63807;SDS011;49961;43.970;22.868;2023-08-21T05:38:42;6.20;;;5.60;;
63807;SDS011;49961;43.970;22.868;2023-08-21T05:39:42;9.68;;;5.97;;
63807;SDS011;49961;43.970;22.868;2023-08-21T05:40:42;6.93;;;6.03;;
63807;SDS011;49961;43.970;22.868;2023-08-21T05:41:43;6.95;;;6.03;;
63807;SDS011;49961;43.970;22.868;2023-08-21T05:42:43;6.65;;;5.60;;
63807;SDS011;49961;43.970;22.868;2023-08-21T05:43:44;6.57;;;5.97;;
63807;SDS011;49961;43.970;22.868;2023-08-21T05:44:45;8.85;;;5.60;;
63807;SDS011;49961;43.970;22.868;2023-08-21T05:45:46;8.57;;;6.15;;
63807;SDS011;49961;43.970;22.868;2023-08-21T05:46:47;7.78;;;6.32;;
63807;SDS011;49961;43.970;22.868;2023-08-21T05:47:47;7.32;;;5.63;;
63807;SDS011;49961;43.970;22.868;2023-08-21T05:48:47;7.45;;;6.13;;
63807;SDS011;49961;43.970;22.868;2023-08-21T05:49:48;7.95;;;6.10;;
63807;SDS011;49961;43.970;22.868;2023-08-21T05:50:52;6.60;;;5.85;;
63807;SDS011;49961;43.970;22.868;2023-08-21T05:51:52;8.43;;;5.93;;
63807;SDS011;49961;43.970;22.868;2023-08-21T05:52:53;9.95;;;6.43;;
63807;SDS011;49961;43.970;22.868;2023-08-21T05:53:54;9.90;;;6.90;;
63807;SDS011;49961;43.970;22.868;2023-08-21T05:54:55;6.10;;;5.50;;
63807;SDS011;49961;43.970;22.868;2023-08-21T05:55:55;8.80;;;6.25;;
63807;SDS011;49961;43.970;22.868;2023-08-21T05:56:55;9.18;;;6.93;;
63807;SDS011;49961;43.970;22.868;2023-08-21T05:57:56;7.10;;;6.03;;
63807;SDS011;49961;43.970;22.868;2023-08-21T05:58:56;8.02;;;5.60;;
63807;SDS011;49961;43.970;22.868;2023-08-21T05:59:57;7.53;;;6.05;;
63807;SDS011;49961;43.970;22.868;2023-08-21T06:00:57;8.50;;;5.63;;